Depesze METAR lotnisk w Polsce

METAR – format kodowanego raportu o pogodzie używany w meteorologii lotniczej i prognozie pogody. METAR jest akronimem od ang. Meteorological Aerodrome Report. Typowy METAR zawiera informację o temperaturze, ciśnieniu, temperaturze punktu rosy, sile i kierunku wiatru, opadzie, pokrywie chmur, wysokości podstawy chmur, widzialności, lecz może zawierać też inne informacje (np. stan dróg startowych).

Warszawa-Okęcie (EPWA)

METAR = EPWA 290900Z 29011G21KT 250V310 9999 BKN020 07/03 Q1013 NOSIG

STACJA......... EPWA - Warszawa-Okęcie (WAW)
POMIAR......... Sat Apr 29, 11:00 CEST
WIATR.......... zachodni północno-zachodni (WNW) z prędkością 20 km/h, w porywach do 39 km/h
WIDZIALNOŚĆ.... powyżej 10 kilometrów
CHMURY......... zachmurzenie średnie (5/8-7/8)
TEMPERATURA.... 7°C
T.PUNKTU ROSY.. 3°C
WILGOTNOŚĆ..... 76%
T.ODCZUWALNA... 4°C
CIŚNIENIE...... 1013 hPa
CIŚN.BEZWZGL... 1000 hPa
PROGNOZA....... bez nagłych zmian w ciągu 2h

Sprawdź też: Prognoza pogody Warszawa

Warszawa-Modlin (EPMO)

METAR = EPMO 290830Z 27016KT 9999 BKN017 06/04 Q1012 =

STACJA......... EPMO - Warszawa-Modlin (WMI)
POMIAR......... Sat Apr 29, 10:30 CEST
WIATR.......... zachodni (W) z prędkością 30 km/h
WIDZIALNOŚĆ.... powyżej 10 kilometrów
CHMURY......... zachmurzenie średnie (5/8-7/8)
TEMPERATURA.... 6°C
T.PUNKTU ROSY.. 4°C
WILGOTNOŚĆ..... 87%
T.ODCZUWALNA... 2°C
CIŚNIENIE...... 1012 hPa
CIŚN.BEZWZGL... 999 hPa

Sprawdź też: Prognoza pogody Nowy Dwór Mazowiecki

Kraków-Balice (EPKK)

METAR = EPKK 290900Z 22008KT 9999 FEW014 SCT017 BKN020 06/04 Q1017

STACJA......... EPKK - Kraków-Balice (KRK)
POMIAR......... Sat Apr 29, 11:00 CEST
WIATR.......... południowo-zachodni (SW) z prędkością 15 km/h
WIDZIALNOŚĆ.... powyżej 10 kilometrów
CHMURY......... zachmurzenie średnie (5/8-7/8)
TEMPERATURA.... 6°C
T.PUNKTU ROSY.. 4°C
WILGOTNOŚĆ..... 87%
T.ODCZUWALNA... 3°C
CIŚNIENIE...... 1017 hPa
CIŚN.BEZWZGL... 987 hPa

Sprawdź też: Prognoza pogody Kraków

Łódź-Lublinek (EPLL)

METAR = EPLL 290900Z 27014KT 9999 SCT018 SCT024 BKN031 08/03 Q1014

STACJA......... EPLL - Łódź-Lublinek (LCJ)
POMIAR......... Sat Apr 29, 11:00 CEST
WIATR.......... zachodni (W) z prędkością 26 km/h
WIDZIALNOŚĆ.... powyżej 10 kilometrów
CHMURY......... zachmurzenie średnie (5/8-7/8)
TEMPERATURA.... 8°C
T.PUNKTU ROSY.. 3°C
WILGOTNOŚĆ..... 71%
T.ODCZUWALNA... 4°C
CIŚNIENIE...... 1014 hPa
CIŚN.BEZWZGL... 991 hPa

Sprawdź też: Prognoza pogody Łódź

Wrocław-Strachowice (EPWR)

METAR = EPWR 290900Z 29014KT 9999 SCT030 11/04 Q1016

STACJA......... EPWR - Wrocław-Strachowice (WRO)
POMIAR......... Sat Apr 29, 11:00 CEST
WIATR.......... zachodni północno-zachodni (WNW) z prędkością 26 km/h
WIDZIALNOŚĆ.... powyżej 10 kilometrów
CHMURY......... zachmurzenie małe (3/8-4/8)
TEMPERATURA.... 11°C
T.PUNKTU ROSY.. 4°C
WILGOTNOŚĆ..... 62%
CIŚNIENIE...... 1016 hPa
CIŚN.BEZWZGL... 1001 hPa

Sprawdź też: Prognoza pogody Wrocław

Katowice-Pyrzowice (EPKT)

METAR = EPKT 290900Z 28008KT 240V320 9999 FEW015 SCT018 BKN021 08/03 Q1016

STACJA......... EPKT - Katowice-Pyrzowice (KTW)
POMIAR......... Sat Apr 29, 11:00 CEST
WIATR.......... zachodni (W) z prędkością 15 km/h
WIDZIALNOŚĆ.... powyżej 10 kilometrów
CHMURY......... zachmurzenie średnie (5/8-7/8)
TEMPERATURA.... 8°C
T.PUNKTU ROSY.. 3°C
WILGOTNOŚĆ..... 71%
T.ODCZUWALNA... 5°C
CIŚNIENIE...... 1016 hPa
CIŚN.BEZWZGL... 979 hPa

Sprawdź też: Prognoza pogody Katowice

Gdańsk (EPGD)

METAR = EPGD 290900Z 31015KT 9999 -RA FEW004 BKN008 04/03 Q1012

STACJA......... EPGD - Gdańsk im. Lecha Wałęsy (GDN)
POMIAR......... Sat Apr 29, 11:00 CEST
WIATR.......... północno zachodni (NW) z prędkością 28 km/h
WIDZIALNOŚĆ.... powyżej 10 kilometrów
WARUNKI........ słaby: deszcz 
CHMURY......... zachmurzenie średnie (5/8-7/8)
TEMPERATURA.... 4°C
T.PUNKTU ROSY.. 3°C
WILGOTNOŚĆ..... 93%
T.ODCZUWALNA... -1°C
CIŚNIENIE...... 1012 hPa
CIŚN.BEZWZGL... 994 hPa

Sprawdź też: Prognoza pogody Gdańsk

Poznań-Ławica (EPPO)

METAR = EPPO 290900Z 26009KT 9999 SCT030 11/02 Q1014

STACJA......... EPPO - Poznań-Ławica (POZ)
POMIAR......... Sat Apr 29, 11:00 CEST
WIATR.......... zachodni (W) z prędkością 17 km/h
WIDZIALNOŚĆ.... powyżej 10 kilometrów
CHMURY......... zachmurzenie małe (3/8-4/8)
TEMPERATURA.... 11°C
T.PUNKTU ROSY.. 2°C
WILGOTNOŚĆ..... 54%
CIŚNIENIE...... 1014 hPa
CIŚN.BEZWZGL... 1003 hPa

Sprawdź też: Prognoza pogody Poznań

Rzeszów-Jasionka (EPRZ)

METAR = EPRZ 290900Z 28011KT 9999 FEW016 BKN026 07/03 Q1016

STACJA......... EPRZ - Rzeszów-Jasionka (RZE)
POMIAR......... Sat Apr 29, 11:00 CEST
WIATR.......... zachodni (W) z prędkością 20 km/h
WIDZIALNOŚĆ.... powyżej 10 kilometrów
CHMURY......... zachmurzenie średnie (5/8-7/8)
TEMPERATURA.... 7°C
T.PUNKTU ROSY.. 3°C
WILGOTNOŚĆ..... 76%
T.ODCZUWALNA... 4°C
CIŚNIENIE...... 1016 hPa
CIŚN.BEZWZGL... 990 hPa

Sprawdź też: Prognoza pogody Rzeszów

Szczecin-Goleniów (EPSC)

METAR = EPSC 290900Z 26004KT 180V320 9999 FEW007 BKN011TCU 08/05 Q1014

STACJA......... EPSC - Szczecin-Goleniów (SZZ)
POMIAR......... Sat Apr 29, 11:00 CEST
WIATR.......... zachodni (W) z prędkością 7 km/h
WIDZIALNOŚĆ.... powyżej 10 kilometrów
CHMURY......... zachmurzenie średnie (5/8-7/8)
TEMPERATURA.... 8°C
T.PUNKTU ROSY.. 5°C
WILGOTNOŚĆ..... 82%
T.ODCZUWALNA... 7°C
CIŚNIENIE...... 1014 hPa
CIŚN.BEZWZGL... 1008 hPa

Sprawdź też: Prognoza pogody Szczecin

Lublin-Świdnik (EPLB)

METAR = EPLB 290830Z 25011KT 9999 SCT017 OVC027 06/04 Q1014 =

STACJA......... EPLB - Lublin-Świdnik (LUZ)
POMIAR......... Sat Apr 29, 10:30 CEST
WIATR.......... zachodni południowo-zachodni (WSW) z prędkością 20 km/h
WIDZIALNOŚĆ.... powyżej 10 kilometrów
CHMURY......... zachmurzenie całkowite (8/8)
TEMPERATURA.... 6°C
T.PUNKTU ROSY.. 4°C
WILGOTNOŚĆ..... 87%
T.ODCZUWALNA... 2°C
CIŚNIENIE...... 1014 hPa
CIŚN.BEZWZGL... 989 hPa

Sprawdź też: Prognoza pogody Lublin

Bydgoszcz-Szwederowo (EPBY)

METAR = EPBY 290830Z 33011KT 300V360 9999 SCT020 BKN023 08/02 Q1013 =

STACJA......... EPBY - Bydgoszcz-Szwederowo (BZG)
POMIAR......... Sat Apr 29, 10:30 CEST
WIATR.......... północno północno-zachodni (NNW) z prędkością 20 km/h
WIDZIALNOŚĆ.... powyżej 10 kilometrów
CHMURY......... zachmurzenie średnie (5/8-7/8)
TEMPERATURA.... 8°C
T.PUNKTU ROSY.. 2°C
WILGOTNOŚĆ..... 66%
T.ODCZUWALNA... 4°C
CIŚNIENIE...... 1013 hPa
CIŚN.BEZWZGL... 1004 hPa

Sprawdź też: Prognoza pogody Bydgoszcz

Zielona Góra-Babimost (EPZG)

METAR = EPZG 290830Z 22009KT 9999 FEW022 BKN046 09/05 Q1015 =

STACJA......... EPZG - Zielona Góra-Babimost (IEG)
POMIAR......... Sat Apr 29, 10:30 CEST
WIATR.......... południowo-zachodni (SW) z prędkością 17 km/h
WIDZIALNOŚĆ.... powyżej 10 kilometrów
CHMURY......... zachmurzenie średnie (5/8-7/8)
TEMPERATURA.... 9°C
T.PUNKTU ROSY.. 5°C
WILGOTNOŚĆ..... 76%
T.ODCZUWALNA... 6°C
CIŚNIENIE...... 1015 hPa
CIŚN.BEZWZGL... 1008 hPa

Sprawdź też: Prognoza pogody Zielona Góra

Szymany Olsztyn-Mazury (EPSY)

METAR = EPSY 290830Z 25008KT 220V310 9999 FEW009 BKN015 06/04 Q1010=

STACJA......... EPSY - Olsztyn-Mazury (SZY)
POMIAR......... Sat Apr 29, 10:30 CEST
WIATR.......... zachodni południowo-zachodni (WSW) z prędkością 15 km/h
WIDZIALNOŚĆ.... powyżej 10 kilometrów
CHMURY......... zachmurzenie średnie (5/8-7/8)
TEMPERATURA.... 6°C
T.PUNKTU ROSY.. 4°C
WILGOTNOŚĆ..... 87%
T.ODCZUWALNA... 3°C
CIŚNIENIE...... 1010 hPa
CIŚN.BEZWZGL... 993 hPa

Sprawdź też: Prognoza pogody Olsztyn